createdAt,value
2018-08-12T00:03:11.368Z,28.68
2018-08-12T00:08:15.023Z,28.56
2018-08-12T00:13:18.746Z,28.72
2018-08-12T00:18:22.403Z,28.89
2018-08-12T00:23:26.155Z,28.92
2018-08-12T00:28:29.943Z,28.59
2018-08-12T00:33:33.574Z,29.19
2018-08-12T00:38:37.294Z,29.00
2018-08-12T00:43:41.015Z,29.59
2018-08-12T00:48:44.809Z,29.36
2018-08-12T00:53:48.499Z,28.65
2018-08-12T00:58:52.152Z,28.01
2018-08-12T01:03:56.041Z,28.54
2018-08-12T01:08:59.776Z,28.50
2018-08-12T01:14:03.790Z,28.37
2018-08-12T01:19:07.501Z,27.90
2018-08-12T01:24:11.223Z,28.59
2018-08-12T01:29:14.874Z,28.39
2018-08-12T01:34:18.533Z,28.41
2018-08-12T01:39:22.174Z,28.70
2018-08-12T01:44:25.829Z,28.65
2018-08-12T01:49:29.473Z,28.81
2018-08-12T01:54:33.302Z,28.93
2018-08-12T01:59:36.958Z,28.71
2018-08-12T02:04:40.601Z,28.59
2018-08-12T02:09:44.306Z,29.19
2018-08-12T02:14:48.077Z,29.22
2018-08-12T02:19:51.712Z,29.47
2018-08-12T02:24:55.454Z,29.19
2018-08-12T02:29:59.198Z,29.52
2018-08-12T02:35:03.576Z,29.37
2018-08-12T02:40:09.172Z,29.39
2018-08-12T02:45:15.132Z,29.75
2018-08-12T02:50:18.849Z,30.01
2018-08-12T02:55:22.509Z,29.47
2018-08-12T03:00:27.077Z,29.45
2018-08-12T03:05:30.847Z,29.71
2018-08-12T03:10:34.629Z,29.40
2018-08-12T03:15:38.368Z,29.91
2018-08-12T03:20:42.109Z,29.51
2018-08-12T03:25:45.758Z,29.66
2018-08-12T03:30:49.450Z,30.09
2018-08-12T03:35:53.183Z,29.95
2018-08-12T03:40:56.885Z,30.29
2018-08-12T03:46:01.042Z,30.05
2018-08-12T03:51:04.781Z,30.49
2018-08-12T03:56:08.541Z,30.56
2018-08-12T04:01:12.272Z,30.50
2018-08-12T04:06:15.953Z,30.30
2018-08-12T04:11:19.599Z,30.65
2018-08-12T04:16:23.288Z,30.65
2018-08-12T04:21:26.955Z,30.55
2018-08-12T04:26:30.602Z,31.03
2018-08-12T04:31:34.349Z,30.71
2018-08-12T04:36:38.274Z,30.71
2018-08-12T04:41:43.657Z,30.80
2018-08-12T04:46:47.479Z,30.80
2018-08-12T04:51:51.158Z,30.77
2018-08-12T04:56:55.502Z,30.72
2018-08-12T05:01:59.455Z,31.00
2018-08-12T05:07:03.237Z,30.99
2018-08-12T05:12:07.089Z,30.80
2018-08-12T05:17:10.813Z,30.72
2018-08-12T05:22:14.530Z,30.88
2018-08-12T05:27:18.463Z,30.51
2018-08-12T05:32:22.387Z,30.43
2018-08-12T05:37:26.257Z,30.40
2018-08-12T05:42:29.991Z,30.42
2018-08-12T05:47:34.154Z,30.43
2018-08-12T05:52:37.835Z,30.53
2018-08-12T05:57:41.539Z,30.41
2018-08-12T06:02:46.290Z,30.87
2018-08-12T06:07:50.119Z,30.42
2018-08-12T06:12:53.907Z,30.63
2018-08-12T06:17:57.803Z,30.81
2018-08-12T06:23:01.642Z,30.62
2018-08-12T06:28:05.390Z,30.53
2018-08-12T06:33:09.080Z,30.65
2018-08-12T06:38:12.777Z,30.13
2018-08-12T06:43:16.534Z,29.84
2018-08-12T06:48:20.161Z,29.93
2018-08-12T06:53:23.830Z,30.40
2018-08-12T06:58:27.582Z,30.17
2018-08-12T07:03:31.201Z,30.05
2018-08-12T07:08:34.950Z,30.87
2018-08-12T07:13:38.683Z,31.20
2018-08-12T07:18:42.359Z,30.69
2018-08-12T07:23:46.080Z,31.21
2018-08-12T07:28:49.666Z,30.49
2018-08-12T07:33:53.365Z,30.32
2018-08-12T07:38:57.098Z,30.89
2018-08-12T07:44:01.103Z,30.12
2018-08-12T07:49:05.001Z,29.12
2018-08-12T07:54:08.653Z,29.65
2018-08-12T07:59:12.297Z,29.74
2018-08-12T08:04:15.942Z,29.58
2018-08-12T08:09:19.683Z,29.52
2018-08-12T08:14:23.318Z,28.74
2018-08-12T08:19:27.092Z,28.65
2018-08-12T08:24:30.861Z,28.29
2018-08-12T08:29:35.162Z,29.35
2018-08-12T08:34:39.280Z,26.36
2018-08-12T08:39:43.017Z,26.72
2018-08-12T08:44:46.667Z,26.90
2018-08-12T08:49:50.417Z,27.01
2018-08-12T08:54:54.125Z,27.20
2018-08-12T08:59:57.938Z,28.07
2018-08-12T09:05:09.609Z,27.27
2018-08-12T09:10:15.104Z,27.37
2018-08-12T09:15:20.125Z,27.61
2018-08-12T09:20:23.786Z,26.01
2018-08-12T09:25:27.510Z,26.84
2018-08-12T09:30:37.064Z,26.63
2018-08-12T09:35:40.898Z,27.03
2018-08-12T09:40:44.536Z,26.99
2018-08-12T09:45:48.257Z,27.30
2018-08-12T09:50:51.878Z,26.43
2018-08-12T09:55:55.601Z,28.05
2018-08-12T10:00:59.261Z,27.66
2018-08-12T10:06:02.912Z,26.18
2018-08-12T10:11:06.569Z,27.73
2018-08-12T10:16:10.375Z,27.19
2018-08-12T10:21:14.167Z,28.21
2018-08-12T10:26:17.877Z,27.80
2018-08-12T10:31:26.897Z,28.08
2018-08-12T10:36:31.017Z,27.26
2018-08-12T10:41:36.932Z,27.64
2018-08-12T10:46:41.601Z,28.10
2018-08-12T10:51:47.017Z,27.22
2018-08-12T11:02:05.574Z,28.61
2018-08-12T11:07:13.065Z,29.74
2018-08-12T11:12:19.223Z,30.65
2018-08-12T11:17:25.429Z,30.59
2018-08-12T11:22:29.195Z,30.96
2018-08-12T11:27:33.154Z,31.32
2018-08-12T11:32:36.862Z,31.05
2018-08-12T11:37:42.045Z,31.47
2018-08-12T11:42:45.786Z,31.68
2018-08-12T11:47:49.909Z,31.92
2018-08-12T11:52:53.526Z,31.81
2018-08-12T11:57:57.224Z,32.08
2018-08-12T12:03:12.782Z,32.15
2018-08-12T12:08:20.169Z,32.23
2018-08-12T12:13:30.203Z,32.36
2018-08-12T12:18:36.022Z,32.90
2018-08-12T12:23:39.724Z,32.64
2018-08-12T12:28:43.341Z,33.08
2018-08-12T12:33:47.652Z,32.73
2018-08-12T12:38:51.867Z,33.03
2018-08-12T12:43:55.619Z,32.95
2018-08-12T12:48:59.790Z,33.37
2018-08-12T12:54:03.620Z,33.50
2018-08-12T12:59:07.409Z,33.51
2018-08-12T13:04:11.170Z,33.47
2018-08-12T13:09:15.019Z,33.35
2018-08-12T13:14:18.666Z,33.45
2018-08-12T13:19:23.050Z,33.27
2018-08-12T13:24:26.838Z,33.44
2018-08-12T13:29:30.590Z,33.32
2018-08-12T13:34:34.433Z,33.36
2018-08-12T13:39:38.114Z,33.80
2018-08-12T13:44:42.930Z,33.31
2018-08-12T13:49:46.690Z,33.37
2018-08-12T13:54:50.404Z,33.53
2018-08-12T13:59:54.466Z,33.51
2018-08-12T14:04:58.122Z,33.66
2018-08-12T14:10:01.872Z,33.99
2018-08-12T14:15:07.826Z,34.29
2018-08-12T14:20:12.598Z,34.32
2018-08-12T14:25:16.188Z,34.27
2018-08-12T14:30:21.141Z,34.38
2018-08-12T14:35:24.787Z,34.45
2018-08-12T14:40:28.560Z,34.32
2018-08-12T14:45:32.466Z,34.10
2018-08-12T14:50:36.110Z,34.36
2018-08-12T14:55:39.842Z,34.32
2018-08-12T15:00:43.543Z,34.23
2018-08-12T15:05:47.174Z,34.42
2018-08-12T15:10:50.784Z,34.56
2018-08-12T15:15:54.410Z,34.57
2018-08-12T15:20:58.153Z,34.78
2018-08-12T15:26:01.822Z,34.72
2018-08-12T15:31:05.482Z,34.52
2018-08-12T15:36:09.257Z,34.46
2018-08-12T15:41:12.968Z,34.88
2018-08-12T15:46:16.664Z,34.86
2018-08-12T15:51:20.342Z,34.88
2018-08-12T15:56:24.238Z,34.71
2018-08-12T16:01:28.036Z,34.94
2018-08-12T16:06:31.853Z,34.88
2018-08-12T16:11:35.467Z,34.79
2018-08-12T16:16:39.552Z,34.76
2018-08-12T16:21:43.200Z,34.99
2018-08-12T16:26:46.857Z,35.07
2018-08-12T16:31:50.850Z,35.08
2018-08-12T16:36:54.658Z,35.16
2018-08-12T16:41:58.547Z,35.06
2018-08-12T16:47:02.823Z,35.33
2018-08-12T16:52:06.646Z,35.42
2018-08-12T16:57:11.042Z,35.16
2018-08-12T17:02:15.081Z,35.20
2018-08-12T17:07:19.254Z,35.32
2018-08-12T17:12:23.776Z,35.60
2018-08-12T17:17:28.160Z,35.55
2018-08-12T17:22:33.320Z,35.61
2018-08-12T17:27:37.657Z,35.84
2018-08-12T17:32:41.491Z,35.81
2018-08-12T17:37:45.976Z,35.97
2018-08-12T17:42:49.802Z,35.66
2018-08-12T17:47:53.919Z,35.40
2018-08-12T17:52:58.137Z,35.74
2018-08-12T17:58:01.882Z,35.67
2018-08-12T18:03:05.804Z,35.47
2018-08-12T18:08:09.702Z,35.28
2018-08-12T18:13:14.039Z,35.43
2018-08-12T18:18:18.139Z,35.40
2018-08-12T18:23:21.731Z,35.68
2018-08-12T18:28:25.526Z,35.64
2018-08-12T18:33:29.175Z,35.66
2018-08-12T18:38:32.779Z,35.51
2018-08-12T18:43:36.593Z,35.95
2018-08-12T18:48:40.317Z,35.03
2018-08-12T18:53:43.969Z,35.33
2018-08-12T18:58:47.590Z,34.91
2018-08-12T19:03:51.263Z,34.99
2018-08-12T19:08:54.937Z,35.10
2018-08-12T19:14:05.115Z,34.94
2018-08-12T19:19:08.759Z,34.81
2018-08-12T19:24:12.330Z,34.76
2018-08-12T19:29:15.983Z,34.26
2018-08-12T19:34:19.621Z,34.40
2018-08-12T19:39:23.260Z,34.20
2018-08-12T19:44:26.957Z,34.27
2018-08-12T19:49:31.064Z,34.09
2018-08-12T19:54:35.061Z,34.05
2018-08-12T19:59:39.481Z,33.98
2018-08-12T20:04:44.201Z,33.91
2018-08-12T20:09:49.554Z,33.69
2018-08-12T20:14:57.917Z,33.17
2018-08-12T20:20:03.830Z,32.78
2018-08-12T20:25:10.305Z,32.79
2018-08-12T20:30:15.871Z,32.75
2018-08-12T20:35:22.088Z,32.80
2018-08-12T20:40:29.142Z,33.04
2018-08-12T20:45:33.110Z,32.54
2018-08-12T20:50:38.570Z,32.14
2018-08-12T20:55:44.583Z,32.38
2018-08-12T21:00:49.531Z,32.45
2018-08-12T21:05:54.881Z,32.27
2018-08-12T21:10:59.771Z,32.26
2018-08-12T21:16:03.382Z,32.46
2018-08-12T21:21:07.015Z,32.23
2018-08-12T21:26:10.809Z,32.08
2018-08-12T21:31:17.219Z,32.32
2018-08-12T21:36:20.818Z,32.23
2018-08-12T21:41:24.467Z,32.23
2018-08-12T21:46:28.130Z,32.06
2018-08-12T21:51:31.718Z,31.78
2018-08-12T21:56:35.376Z,32.12
2018-08-12T22:01:39.391Z,31.91
2018-08-12T22:06:43.003Z,31.80
2018-08-12T22:11:46.647Z,32.08
2018-08-12T22:16:50.391Z,31.93
2018-08-12T22:21:54.162Z,31.66
2018-08-12T22:26:57.798Z,31.98
2018-08-12T22:32:01.381Z,31.92
2018-08-12T22:37:05.186Z,31.84
2018-08-12T22:42:08.838Z,31.76
2018-08-12T22:47:21.601Z,31.76
2018-08-12T22:52:32.566Z,32.18
2018-08-12T22:57:36.755Z,32.14
2018-08-12T23:02:40.298Z,31.90
2018-08-12T23:07:44.068Z,32.39
2018-08-12T23:12:47.702Z,32.56
2018-08-12T23:17:51.236Z,32.44
2018-08-12T23:22:55.652Z,32.20
2018-08-12T23:27:59.274Z,32.18
2018-08-12T23:33:02.896Z,32.08
2018-08-12T23:38:06.631Z,31.94
2018-08-12T23:43:10.287Z,32.23
2018-08-12T23:48:13.907Z,32.23
2018-08-12T23:53:24.113Z,31.76
2018-08-12T23:58:28.427Z,31.99
